This is the latest recevied weather packets stored in our database for station/object WH6VH. If no packets are shown the sender has not sent any weather packets the latest 10 day(s).
| Time | Temp. | Humidity | Pressure | Rain* | Wind** | Luminosity | Snow |
|---|---|---|---|---|---|---|---|
| 1777429804 | 10° C | 43% | 1020.4 hPa | 0 mm | - | - | - |
| 1777429504 | 10° C | 44% | 1020.4 hPa | 0 mm | - | - | - |
| 1777428604 | 10.56° C | 46% | 1019.8 hPa | 0 mm | - | - | - |
| 1777428304 | 10.56° C | 46% | 1019.8 hPa | 0 mm | - | - | - |
| 1777426804 | 11.67° C | 43% | 1019.4 hPa | 0 mm | - | - | - |
| 1777426205 | 11.67° C | 43% | 1019.3 hPa | 0 mm | - | - | - |
| 1777423204 | 12.22° C | 42% | 1018.6 hPa | 0 mm | - | - | - |
| 1777422304 | 12.78° C | 41% | 1018.1 hPa | 0 mm | - | - | - |
| 1777421404 | 12.78° C | 42% | 1017.9 hPa | 0 mm | - | - | - |
| 1777420205 | 13.33° C | 41% | 1017.9 hPa | 0 mm | - | - | - |
| 1777418104 | 12.78° C | 42% | 1017.9 hPa | 0 mm | - | - | - |
| 1777417204 | 13.33° C | 41% | 1017.8 hPa | 0 mm | - | - | - |
| 1777416904 | 13.33° C | 42% | 1017.8 hPa | 0 mm | - | - | - |
| 1777416005 | 13.89° C | 41% | 1017.7 hPa | 0 mm | - | - | - |
| 1777414805 | 13.89° C | 42% | 1017.5 hPa | 0 mm | - | - | - |
| 1777412405 | 13.33° C | 42% | 1017.7 hPa | 0 mm | - | - | - |
| 1777411504 | 13.89° C | 41% | 1017.8 hPa | 0 mm | - | - | - |
| 1777409704 | 13.33° C | 44% | 1018.1 hPa | 0 mm | - | - | - |
| 1777408204 | 13.89° C | 42% | 1018 hPa | 0 mm | - | - | - |
| 1777407904 | 13.33° C | 44% | 1018 hPa | 0 mm | - | - | - |
| 1777407605 | 13.33° C | 43% | 1018.1 hPa | 0 mm | - | - | - |
| 1777406404 | 13.33° C | 45% | 1017.8 hPa | 0 mm | - | - | - |
| 1777404905 | 12.78° C | 47% | 1017.6 hPa | 0 mm | - | - | - |
| 1777404004 | 13.33° C | 48% | 1017.7 hPa | 0 mm | - | - | - |
| 1777403703 | 12.78° C | 50% | 1017.6 hPa | 0 mm | - | - | - |
* Rain latest hour (hover to see other rain measurements)
** Current wind speed in m/s (hover to see current wind gust speed)